createdAt,value
2022-11-21T00:05:59.008Z,79.1
2022-11-21T00:21:08.449Z,79.1
2022-11-21T00:36:17.902Z,79.1
2022-11-21T00:51:26.713Z,79.2
2022-11-21T01:06:35.038Z,79.4
2022-11-21T01:21:44.836Z,79.5
2022-11-21T01:36:54.421Z,79.6
2022-11-21T01:52:04.025Z,79.6
2022-11-21T02:07:13.927Z,79.7
2022-11-21T02:22:23.457Z,79.9
2022-11-21T02:37:33.197Z,79.9
2022-11-21T02:53:09.873Z,79.7
2022-11-21T03:08:19.629Z,80.2
2022-11-21T03:23:29.400Z,80.3
2022-11-21T03:38:38.619Z,80.5
2022-11-21T03:53:48.131Z,80.5
2022-11-21T04:08:56.970Z,80.5
2022-11-21T04:24:06.066Z,80.6
2022-11-21T04:39:15.691Z,80.7
2022-11-21T04:54:25.109Z,80.6
2022-11-21T05:09:34.834Z,80.6
2022-11-21T05:24:43.445Z,80.7
2022-11-21T05:39:52.518Z,80.8
2022-11-21T05:55:03.488Z,80.8
2022-11-21T06:10:13.045Z,80.7
2022-11-21T06:25:22.041Z,80.8
2022-11-21T06:40:31.541Z,80.7
2022-11-21T06:55:47.175Z,80.6
2022-11-21T07:11:26.134Z,80.5
2022-11-21T07:26:42.052Z,80.5
2022-11-21T07:41:51.200Z,80.5
2022-11-21T07:57:00.016Z,80.4
2022-11-21T08:12:09.481Z,80.3
2022-11-21T08:27:18.964Z,80.4
2022-11-21T08:42:28.502Z,79.6
2022-11-21T08:57:43.743Z,79.8
2022-11-21T09:12:53.461Z,79.7
2022-11-21T09:28:04.404Z,79.6
2022-11-21T09:43:13.987Z,79.5
2022-11-21T09:58:23.503Z,79.4
2022-11-21T10:13:33.199Z,79.3
2022-11-21T10:30:27.923Z,78.4
2022-11-21T10:45:38.698Z,79.6
2022-11-21T11:00:48.768Z,79.4
2022-11-21T11:16:01.916Z,79.2
2022-11-21T11:31:10.912Z,78.9
2022-11-21T11:46:21.238Z,78.3
2022-11-21T12:01:34.661Z,77.7
2022-11-21T12:16:44.330Z,77.4
2022-11-21T12:31:54.248Z,77.2
2022-11-21T12:47:09.500Z,76.9
2022-11-21T13:02:19.221Z,77.3
2022-11-21T13:17:28.182Z,77.1
2022-11-21T13:32:37.460Z,78.1
2022-11-21T13:47:57.496Z,78.4
2022-11-21T14:03:07.529Z,78.7
2022-11-21T14:18:16.890Z,79
2022-11-21T14:33:26.534Z,79.2
2022-11-21T14:48:36.203Z,79.3
2022-11-21T15:03:47.511Z,79.9
2022-11-21T15:18:59.421Z,79.7
2022-11-21T15:34:38.770Z,79.9
2022-11-21T15:49:48.862Z,80
2022-11-21T16:04:58.094Z,80
2022-11-21T16:20:08.044Z,80.1
2022-11-21T16:35:17.243Z,80.1
2022-11-21T16:50:26.825Z,79.9
2022-11-21T17:05:36.115Z,79.8
2022-11-21T17:20:45.104Z,79.7
2022-11-21T17:35:54.967Z,79.8
2022-11-21T17:51:04.854Z,79.9
2022-11-21T18:06:14.216Z,80.1
2022-11-21T18:21:23.757Z,80.2
2022-11-21T18:36:32.918Z,80.1
2022-11-21T18:51:42.106Z,80.2
2022-11-21T19:06:52.201Z,80.1
2022-11-21T19:22:01.673Z,80
2022-11-21T19:37:11.575Z,79.9
2022-11-21T19:52:28.581Z,79.7
2022-11-21T20:07:38.926Z,79.7
2022-11-21T20:22:48.646Z,79.7
2022-11-21T20:37:58.306Z,79.6
2022-11-21T20:54:00.128Z,79.7
2022-11-21T21:09:13.246Z,79.8
2022-11-21T21:24:22.953Z,79.1
2022-11-21T21:39:32.305Z,79.9
2022-11-21T21:54:41.419Z,80
2022-11-21T22:09:50.696Z,80.1
2022-11-21T22:24:59.930Z,79.6
2022-11-21T22:40:08.980Z,80.6
2022-11-21T22:55:18.622Z,80.2
2022-11-21T23:10:28.141Z,80.3
2022-11-21T23:25:37.793Z,80.8
2022-11-21T23:40:47.251Z,80.5
2022-11-21T23:55:56.792Z,80.4
